VVPQ

Phu Quoc Airport

Duong Dong, Vietnam
TAF VVPQ 181100Z 1812/1912 VRB03KT 9999 SCT015 SCT040 TEMPO 1812/1815 5000 TSRA BKN013 FEW015CB BECMG 1901/1902 09010KT
Issued Valid From Valid To
Nov-18 @ 11:00 UTC
(6 hours ago)
Nov-18 @ 12:00 UTC
(5 hours ago)
Nov-19 @ 12:00 UTC
(in 19 hours)
Nov-18 @ 12:00 to Nov-19 @ 01:00
TAF VVPQ 181100Z 1812/1912 VRB03KT 9999 SCT015 SCT040
Wind Visibility Clouds
Variable at 3 knots 10,000+ meters
  • Scattered at 1,500' AGL
  • Scattered at 4,000' AGL
Expired Click to View Nov-18 @ 12:00 to Nov-18 @ 15:00
TEMPO 1812/1815 5000 TSRA BKN013 FEW015CB
Visibility Clouds Conditions
5,005 meters
  • Broken at 1,300' AGL
  • Few at 1,500' AGL
  • Thunderstorm
  • Rain
Becoming Nov-19 @ 01:00 to Nov-19 @ 12:00
BECMG 1901/1902 09010KT
Wind Visibility Clouds
90° at 10 knots 10,000+ meters
  • Scattered at 1,500' AGL
  • Scattered at 4,000' AGL
TAF VVPQ 181100Z 1812/1912 VRB03KT 9999 SCT015 SCT040 TEMPO 1812/1815 5000 TSRA BKN013 FEW015CB BECMG 1901/1902 09010KT
Issued Nov-18 @ 11:00 UTC
(6 hours ago)
Valid From Nov-18 @ 12:00 UTC
(5 hours ago)
Valid To Nov-19 @ 12:00 UTC
(in 19 hours)
Nov-18 @ 12:00 - Nov-19 @ 01:00
Wind Visibility
Variable at 3 knots 10,000+ meters
Clouds
  • Scattered at 1,500' AGL
  • Scattered at 4,000' AGL
Nov-18 @ 12:00 - Nov-18 @ 15:00
Clouds
  • Broken at 1,300' AGL
  • Few at 1,500' AGL
Conditions
  • Thunderstorm
  • Rain
Becoming Nov-19 @ 01:00 - Nov-19 @ 12:00
Wind Visibility
90° at 10 knots 10,000+ meters
Clouds
  • Scattered at 1,500' AGL
  • Scattered at 4,000' AGL